createdAt,value
2023-07-16T00:00:09.525Z,21.64
2023-07-16T00:03:38.606Z,21.61
2023-07-16T00:07:07.481Z,21.57
2023-07-16T00:10:36.310Z,21.54
2023-07-16T00:14:05.586Z,21.50
2023-07-16T00:17:35.055Z,21.48
2023-07-16T00:21:04.312Z,21.48
2023-07-16T00:24:33.075Z,21.51
2023-07-16T00:28:01.828Z,21.55
2023-07-16T00:31:30.638Z,21.58
2023-07-16T00:34:59.381Z,21.61
2023-07-16T00:38:28.542Z,21.64
2023-07-16T00:41:42.846Z,21.66
2023-07-16T00:45:12.714Z,21.70
2023-07-16T00:48:41.454Z,21.76
2023-07-16T00:52:10.319Z,21.81
2023-07-16T00:55:38.993Z,21.87
2023-07-16T00:59:07.748Z,21.92
2023-07-16T01:02:36.657Z,21.95
2023-07-16T01:06:06.297Z,21.91
2023-07-16T01:09:35.160Z,21.82
2023-07-16T01:13:03.914Z,21.75
2023-07-16T01:16:33.413Z,21.69
2023-07-16T01:20:02.218Z,21.61
2023-07-16T01:23:29.322Z,21.57
2023-07-16T01:26:56.058Z,21.54
2023-07-16T01:30:45.654Z,21.54
2023-07-16T01:34:14.486Z,21.56
2023-07-16T01:37:43.257Z,21.57
2023-07-16T01:41:14.637Z,21.58
2023-07-16T01:44:43.365Z,21.57
2023-07-16T01:48:13.004Z,21.57
2023-07-16T01:51:42.239Z,21.55
2023-07-16T01:55:11.132Z,21.52
2023-07-16T01:58:40.462Z,21.47
2023-07-16T02:02:09.583Z,21.44
2023-07-16T02:05:38.374Z,21.40
2023-07-16T02:08:57.775Z,21.36
2023-07-16T02:12:26.766Z,21.32
2023-07-16T02:15:55.540Z,21.28
2023-07-16T02:19:24.807Z,21.25
2023-07-16T02:22:46.649Z,21.20
2023-07-16T02:26:15.742Z,21.12
2023-07-16T02:29:39.024Z,21.01
2023-07-16T02:32:56.536Z,20.94
2023-07-16T02:36:28.278Z,20.87
2023-07-16T02:39:48.683Z,20.82
2023-07-16T02:43:08.085Z,20.77
2023-07-16T02:46:36.935Z,20.71
2023-07-16T02:49:59.165Z,20.66
2023-07-16T02:53:28.026Z,20.61
2023-07-16T02:56:57.136Z,20.60
2023-07-16T03:00:25.856Z,20.58
2023-07-16T03:03:55.543Z,20.57
2023-07-16T03:07:24.237Z,20.57
2023-07-16T03:10:52.956Z,20.58
2023-07-16T03:14:21.944Z,20.58
2023-07-16T03:17:51.574Z,20.58
2023-07-16T03:21:20.378Z,20.57
2023-07-16T03:24:50.450Z,20.57
2023-07-16T03:28:19.198Z,20.56
2023-07-16T03:31:47.588Z,20.55
2023-07-16T03:35:16.689Z,20.54
2023-07-16T03:38:44.490Z,20.51
2023-07-16T03:42:13.575Z,20.43
2023-07-16T03:45:42.842Z,20.32
2023-07-16T03:49:11.624Z,20.19
2023-07-16T03:52:41.004Z,20.09
2023-07-16T03:56:10.332Z,20.02
2023-07-16T03:59:39.701Z,19.95
2023-07-16T04:03:12.532Z,19.89
2023-07-16T04:06:44.954Z,19.78
2023-07-16T04:10:14.059Z,19.66
2023-07-16T04:13:43.180Z,19.59
2023-07-16T04:17:05.179Z,19.50
2023-07-16T04:20:38.261Z,19.40
2023-07-16T04:37:27.640Z,19.63
2023-07-16T04:40:56.117Z,19.67
2023-07-16T04:44:22.850Z,19.63
2023-07-16T04:47:51.432Z,19.58
2023-07-16T04:51:19.897Z,19.53
2023-07-16T04:54:48.369Z,19.50
2023-07-16T04:58:00.265Z,19.45
2023-07-16T05:01:28.994Z,19.37
2023-07-16T05:04:59.632Z,19.31
2023-07-16T05:08:20.728Z,19.25
2023-07-16T05:11:42.037Z,19.18
2023-07-16T05:15:10.845Z,19.12
2023-07-16T05:18:39.872Z,19.06
2023-07-16T05:22:01.501Z,19.01
2023-07-16T05:25:32.529Z,18.94
2023-07-16T05:29:01.126Z,18.91
2023-07-16T05:32:29.543Z,18.89
2023-07-16T05:35:57.653Z,18.84
2023-07-16T05:39:19.033Z,18.77
2023-07-16T05:42:37.464Z,18.71
2023-07-16T05:46:06.310Z,18.68
2023-07-16T05:49:34.859Z,18.66
2023-07-16T05:53:03.346Z,18.67
2023-07-16T05:56:31.927Z,18.66
2023-07-16T06:00:01.551Z,18.68
2023-07-16T06:03:22.398Z,18.68
2023-07-16T06:06:52.924Z,18.69
2023-07-16T06:10:21.907Z,18.69
2023-07-16T06:13:50.332Z,18.68
2023-07-16T06:17:11.206Z,18.68
2023-07-16T06:20:39.770Z,18.67
2023-07-16T06:24:08.312Z,18.64
2023-07-16T06:27:36.786Z,18.61
2023-07-16T06:31:05.659Z,18.58
2023-07-16T06:34:34.272Z,18.55
2023-07-16T06:37:55.527Z,18.51
2023-07-16T06:41:29.878Z,18.50
2023-07-16T06:44:57.919Z,18.46
2023-07-16T06:48:26.401Z,18.37
2023-07-16T06:51:37.535Z,18.34
2023-07-16T06:55:06.610Z,18.31
2023-07-16T06:58:15.089Z,18.30
2023-07-16T07:01:43.754Z,18.28
2023-07-16T07:05:13.068Z,18.26
2023-07-16T07:08:41.597Z,18.22
2023-07-16T07:12:09.668Z,18.18
2023-07-16T07:15:38.370Z,18.15
2023-07-16T07:18:47.094Z,18.12
2023-07-16T07:21:48.064Z,18.10
2023-07-16T07:25:16.962Z,18.08
2023-07-16T07:28:45.263Z,18.03
2023-07-16T07:32:14.059Z,17.97
2023-07-16T07:35:42.341Z,17.90
2023-07-16T07:39:10.975Z,17.84
2023-07-16T07:42:39.088Z,17.79
2023-07-16T07:46:07.657Z,17.72
2023-07-16T07:49:34.479Z,17.67
2023-07-16T07:53:04.497Z,17.62
2023-07-16T07:56:33.002Z,17.59
2023-07-16T08:00:01.668Z,17.57
2023-07-16T08:03:29.936Z,17.53
2023-07-16T08:06:58.254Z,17.49
2023-07-16T08:10:09.362Z,17.46
2023-07-16T08:13:30.413Z,17.42
2023-07-16T08:16:59.014Z,17.39
2023-07-16T08:20:27.592Z,17.36
2023-07-16T08:23:56.115Z,17.33
2023-07-16T08:27:24.980Z,17.28
2023-07-16T08:30:53.611Z,17.21
2023-07-16T08:34:22.624Z,17.14
2023-07-16T08:37:50.815Z,17.11
2023-07-16T08:41:22.156Z,17.10
2023-07-16T08:44:50.849Z,17.07
2023-07-16T08:48:10.713Z,17.05
2023-07-16T08:51:41.704Z,17.04
2023-07-16T08:55:09.770Z,17.02
2023-07-16T08:58:38.551Z,17.00
2023-07-16T09:02:07.205Z,17.00
2023-07-16T09:05:40.256Z,16.98
2023-07-16T09:09:01.786Z,16.98
2023-07-16T09:12:30.603Z,16.96
2023-07-16T09:15:51.981Z,16.96
2023-07-16T09:19:23.503Z,16.91
2023-07-16T09:22:51.610Z,16.87
2023-07-16T09:26:20.393Z,16.83
2023-07-16T09:29:50.940Z,16.77
2023-07-16T09:33:20.744Z,16.72
2023-07-16T09:36:47.782Z,16.63
2023-07-16T09:40:00.113Z,16.59
2023-07-16T09:43:29.505Z,16.56
2023-07-16T09:46:57.679Z,16.53
2023-07-16T09:50:28.483Z,16.52
2023-07-16T09:53:56.971Z,16.50
2023-07-16T09:57:25.105Z,16.46
2023-07-16T10:00:53.642Z,16.46
2023-07-16T10:04:14.516Z,16.47
2023-07-16T10:08:04.114Z,16.45
2023-07-16T10:11:03.375Z,16.42
2023-07-16T10:14:24.774Z,16.39
2023-07-16T10:17:55.892Z,16.36
2023-07-16T10:21:33.007Z,16.32
2023-07-16T10:25:01.060Z,16.27
2023-07-16T10:28:30.001Z,16.22
2023-07-16T10:32:04.569Z,16.19
2023-07-16T10:35:34.268Z,16.16
2023-07-16T10:39:02.345Z,16.14
2023-07-16T10:42:30.684Z,16.09
2023-07-16T10:46:02.259Z,16.05
2023-07-16T10:49:23.261Z,16.03
2023-07-16T10:52:51.403Z,16.00
2023-07-16T10:56:00.084Z,15.98
2023-07-16T10:59:27.421Z,15.96
2023-07-16T11:02:55.629Z,15.93
2023-07-16T11:06:23.862Z,15.90
2023-07-16T11:09:51.971Z,15.88
2023-07-16T11:13:20.306Z,15.87
2023-07-16T11:16:39.567Z,15.82
2023-07-16T11:20:02.229Z,15.78
2023-07-16T11:23:30.801Z,15.76
2023-07-16T11:26:59.023Z,15.74
2023-07-16T11:30:32.788Z,15.70
2023-07-16T11:34:01.345Z,15.66
2023-07-16T11:37:10.304Z,15.63
2023-07-16T11:40:30.209Z,15.61
2023-07-16T11:43:58.640Z,15.58
2023-07-16T11:47:27.008Z,15.55
2023-07-16T11:50:55.567Z,15.52
2023-07-16T11:54:23.582Z,15.49
2023-07-16T11:57:52.304Z,15.46
2023-07-16T12:00:59.431Z,15.42
2023-07-16T12:04:28.052Z,15.39
2023-07-16T12:07:56.584Z,15.36
2023-07-16T12:11:24.734Z,15.34
2023-07-16T12:14:52.834Z,15.32
2023-07-16T12:18:21.319Z,15.27
2023-07-16T12:21:51.597Z,15.23
2023-07-16T12:25:22.564Z,15.20
2023-07-16T12:28:31.139Z,15.20
2023-07-16T12:32:02.278Z,15.23
2023-07-16T12:35:30.696Z,15.25
2023-07-16T12:38:59.282Z,15.25
2023-07-16T12:42:10.520Z,15.28
2023-07-16T12:45:39.102Z,15.31
2023-07-16T12:49:07.565Z,15.34
2023-07-16T12:52:28.542Z,15.38
2023-07-16T12:55:56.901Z,15.41
2023-07-16T12:59:15.223Z,15.42
2023-07-16T13:02:36.288Z,15.43
2023-07-16T13:06:04.731Z,15.45
2023-07-16T13:09:32.901Z,15.46
2023-07-16T13:12:50.242Z,15.48
2023-07-16T13:16:20.148Z,15.48
2023-07-16T13:19:30.610Z,15.47
2023-07-16T13:23:02.391Z,15.49
2023-07-16T13:26:30.984Z,15.52
2023-07-16T13:29:59.829Z,15.53
2023-07-16T13:33:28.288Z,15.51
2023-07-16T13:36:56.951Z,15.54
2023-07-16T13:40:25.729Z,15.54
2023-07-16T13:43:54.414Z,15.51
2023-07-16T13:47:23.166Z,15.51
2023-07-16T13:50:43.345Z,15.50
2023-07-16T13:54:12.546Z,15.49
2023-07-16T13:57:31.120Z,15.47
2023-07-16T14:01:00.625Z,15.44
2023-07-16T14:04:29.310Z,15.43
2023-07-16T14:07:57.861Z,15.41
2023-07-16T14:11:26.404Z,15.39
2023-07-16T14:14:55.101Z,15.40
2023-07-16T14:18:23.407Z,15.42
2023-07-16T14:21:51.946Z,15.44
2023-07-16T14:25:20.812Z,15.46
2023-07-16T14:28:49.751Z,15.49
2023-07-16T14:32:19.086Z,15.51
2023-07-16T14:35:47.583Z,15.54
2023-07-16T14:39:15.640Z,15.54
2023-07-16T14:42:44.244Z,15.54
2023-07-16T14:46:12.907Z,15.53
2023-07-16T14:49:42.456Z,15.50
2023-07-16T14:53:10.890Z,15.47
2023-07-16T14:56:39.448Z,15.42
2023-07-16T15:00:08.033Z,15.41
2023-07-16T15:03:36.896Z,15.38
2023-07-16T15:06:58.465Z,15.35
2023-07-16T15:10:20.062Z,15.32
2023-07-16T15:13:48.483Z,15.28
2023-07-16T15:17:17.429Z,15.26
2023-07-16T15:20:46.899Z,15.25
2023-07-16T15:24:16.444Z,15.25
2023-07-16T15:27:44.835Z,15.26
2023-07-16T15:31:06.219Z,15.28
2023-07-16T15:34:34.819Z,15.29
2023-07-16T15:38:03.862Z,15.31
2023-07-16T15:41:33.981Z,15.33
2023-07-16T15:45:02.458Z,15.36
2023-07-16T15:48:31.072Z,15.40
2023-07-16T15:51:58.749Z,15.43
2023-07-16T15:55:27.636Z,15.48
2023-07-16T15:58:55.681Z,15.52
2023-07-16T16:02:24.222Z,15.58
2023-07-16T16:05:46.117Z,15.63
2023-07-16T16:09:17.697Z,15.66
2023-07-16T16:12:46.249Z,15.67
2023-07-16T16:16:15.210Z,15.69
2023-07-16T16:19:44.529Z,15.71
2023-07-16T16:22:53.683Z,15.74
2023-07-16T16:26:22.234Z,15.77
2023-07-16T16:29:50.996Z,15.82
2023-07-16T16:33:20.796Z,15.86
2023-07-16T16:36:52.821Z,15.89
2023-07-16T16:40:21.684Z,15.91
2023-07-16T16:43:50.329Z,15.94
2023-07-16T16:47:18.989Z,15.99
2023-07-16T16:50:47.995Z,16.04
2023-07-16T16:54:16.597Z,16.07
2023-07-16T16:57:45.382Z,16.08
2023-07-16T17:01:14.310Z,16.13
2023-07-16T17:04:44.398Z,16.18
2023-07-16T17:08:13.342Z,16.22
2023-07-16T17:11:41.885Z,16.25
2023-07-16T17:15:10.818Z,16.28
2023-07-16T17:18:38.418Z,16.31
2023-07-16T17:22:06.993Z,16.34
2023-07-16T17:25:28.728Z,16.38
2023-07-16T17:28:57.278Z,16.43
2023-07-16T17:32:25.582Z,16.50
2023-07-16T17:35:54.240Z,16.57
2023-07-16T17:39:22.522Z,16.64
2023-07-16T17:42:52.577Z,16.72
2023-07-16T17:46:21.476Z,16.79
2023-07-16T17:49:50.383Z,16.87
2023-07-16T17:53:19.303Z,16.94
2023-07-16T17:56:41.086Z,17.02
2023-07-16T18:00:24.112Z,17.10
2023-07-16T18:03:53.868Z,17.20
2023-07-16T18:07:22.640Z,17.31
2023-07-16T18:10:44.651Z,17.40
2023-07-16T18:14:12.142Z,17.49
2023-07-16T18:17:40.531Z,17.56
2023-07-16T18:21:17.769Z,17.65
2023-07-16T18:24:53.634Z,17.74
2023-07-16T18:28:22.142Z,17.84
2023-07-16T18:31:50.788Z,17.93
2023-07-16T18:35:20.501Z,18.01
2023-07-16T18:38:49.130Z,18.09
2023-07-16T18:42:19.795Z,18.19
2023-07-16T18:45:49.285Z,18.29
2023-07-16T18:49:17.778Z,18.39
2023-07-16T18:52:46.623Z,18.50
2023-07-16T18:56:15.184Z,18.59
2023-07-16T18:59:44.409Z,18.67
2023-07-16T19:03:06.026Z,18.77
2023-07-16T19:06:34.765Z,18.87
2023-07-16T19:10:03.626Z,18.96
2023-07-16T19:13:33.565Z,19.03
2023-07-16T19:17:04.188Z,19.11
2023-07-16T19:20:32.957Z,19.20
2023-07-16T19:24:01.366Z,19.25
2023-07-16T19:27:29.839Z,19.32
2023-07-16T19:30:58.813Z,19.39
2023-07-16T19:34:27.527Z,19.48
2023-07-16T19:37:55.851Z,19.52
2023-07-16T19:41:25.930Z,19.54
2023-07-16T19:44:45.482Z,19.57
2023-07-16T19:48:09.084Z,19.60
2023-07-16T19:51:19.316Z,19.60
2023-07-16T19:54:47.883Z,19.62
2023-07-16T19:58:16.631Z,19.65
2023-07-16T20:01:36.138Z,19.67
2023-07-16T20:04:57.957Z,19.70
2023-07-16T20:08:26.749Z,19.72
2023-07-16T20:11:55.220Z,19.73
2023-07-16T20:15:23.912Z,19.73
2023-07-16T20:18:52.468Z,19.70
2023-07-16T20:22:20.675Z,19.66
2023-07-16T20:25:48.925Z,19.65
2023-07-16T20:29:00.442Z,19.67
2023-07-16T20:32:09.252Z,19.69
2023-07-16T20:35:37.390Z,19.69
2023-07-16T20:38:49.152Z,19.70
2023-07-16T20:42:18.163Z,19.70
2023-07-16T20:45:51.172Z,19.70
2023-07-16T20:49:20.612Z,19.75
2023-07-16T20:52:49.378Z,19.81
2023-07-16T20:56:17.841Z,19.86
2023-07-16T20:59:45.866Z,19.87
2023-07-16T21:03:15.659Z,19.90
2023-07-16T21:06:44.072Z,19.91
2023-07-16T21:10:13.046Z,19.95
2023-07-16T21:13:41.347Z,20.01
2023-07-16T21:17:10.111Z,20.05
2023-07-16T21:20:38.626Z,20.07
2023-07-16T21:24:07.115Z,20.08
2023-07-16T21:27:35.706Z,20.09
2023-07-16T21:31:04.310Z,20.08
2023-07-16T21:34:33.006Z,20.05
2023-07-16T21:38:01.927Z,20.00
2023-07-16T21:41:31.857Z,19.97
2023-07-16T21:44:50.970Z,19.91
2023-07-16T21:48:19.453Z,19.91
2023-07-16T21:51:46.757Z,19.90
2023-07-16T21:55:15.436Z,19.88
2023-07-16T21:58:36.428Z,19.89
2023-07-16T22:01:55.029Z,19.90
2023-07-16T22:05:23.619Z,19.90
2023-07-16T22:08:52.251Z,19.92
2023-07-16T22:11:50.481Z,19.99
2023-07-16T22:15:18.772Z,20.07
2023-07-16T22:18:40.737Z,20.13
2023-07-16T22:22:09.235Z,20.20
2023-07-16T22:25:37.437Z,20.27
2023-07-16T22:29:06.088Z,20.30
2023-07-16T22:32:34.726Z,20.31
2023-07-16T22:36:03.537Z,20.28
2023-07-16T22:39:32.182Z,20.24
2023-07-16T22:42:42.066Z,20.23
2023-07-16T22:46:10.985Z,20.19
2023-07-16T22:49:42.523Z,20.11
2023-07-16T22:52:51.454Z,20.06
2023-07-16T22:56:20.177Z,20.06
2023-07-16T22:59:48.834Z,20.08
2023-07-16T23:03:17.413Z,20.13
2023-07-16T23:06:42.739Z,20.18
2023-07-16T23:09:51.843Z,20.23
2023-07-16T23:13:20.814Z,20.24
2023-07-16T23:16:49.451Z,20.24
2023-07-16T23:20:12.994Z,20.26
2023-07-16T23:23:40.855Z,20.29
2023-07-16T23:27:10.177Z,20.34
2023-07-16T23:30:38.984Z,20.41
2023-07-16T23:34:08.449Z,20.46
2023-07-16T23:37:37.062Z,20.49
2023-07-16T23:41:00.397Z,20.51
2023-07-16T23:44:30.018Z,20.52
2023-07-16T23:47:41.585Z,20.51
2023-07-16T23:51:10.510Z,20.49
2023-07-16T23:54:38.402Z,20.49
2023-07-16T23:58:07.264Z,20.49
